sensor_id;sensor_type;location;lat;lon;timestamp;P1;durP1;ratioP1;P2;durP2;ratioP2
61702;SDS011;47622;47.726;3.298;2024-03-08T00:01:09;25.20;;;12.77;;
61702;SDS011;47622;47.726;3.298;2024-03-08T00:03:36;24.80;;;12.82;;
61702;SDS011;47622;47.726;3.298;2024-03-08T00:06:01;26.05;;;12.70;;
61702;SDS011;47622;47.726;3.298;2024-03-08T00:08:27;24.17;;;12.13;;
61702;SDS011;47622;47.726;3.298;2024-03-08T00:10:53;25.33;;;13.55;;
61702;SDS011;47622;47.726;3.298;2024-03-08T00:13:19;26.05;;;13.25;;
61702;SDS011;47622;47.726;3.298;2024-03-08T00:15:44;25.50;;;12.55;;
61702;SDS011;47622;47.726;3.298;2024-03-08T00:18:10;25.42;;;13.20;;
61702;SDS011;47622;47.726;3.298;2024-03-08T00:20:36;29.35;;;13.95;;
61702;SDS011;47622;47.726;3.298;2024-03-08T00:23:02;23.42;;;11.95;;
61702;SDS011;47622;47.726;3.298;2024-03-08T00:25:27;27.65;;;14.25;;
61702;SDS011;47622;47.726;3.298;2024-03-08T00:27:53;26.08;;;13.88;;
61702;SDS011;47622;47.726;3.298;2024-03-08T00:30:21;25.25;;;12.82;;
61702;SDS011;47622;47.726;3.298;2024-03-08T00:32:50;28.30;;;13.68;;
61702;SDS011;47622;47.726;3.298;2024-03-08T00:35:15;28.70;;;14.13;;
61702;SDS011;47622;47.726;3.298;2024-03-08T00:37:41;26.65;;;12.57;;
61702;SDS011;47622;47.726;3.298;2024-03-08T00:40:07;27.23;;;13.43;;
61702;SDS011;47622;47.726;3.298;2024-03-08T00:42:34;26.35;;;12.85;;
61702;SDS011;47622;47.726;3.298;2024-03-08T00:45:00;23.92;;;13.07;;
61702;SDS011;47622;47.726;3.298;2024-03-08T00:47:26;26.67;;;12.68;;
61702;SDS011;47622;47.726;3.298;2024-03-08T00:49:52;25.40;;;12.25;;
61702;SDS011;47622;47.726;3.298;2024-03-08T00:52:18;24.20;;;12.65;;
61702;SDS011;47622;47.726;3.298;2024-03-08T00:54:44;27.10;;;13.23;;
61702;SDS011;47622;47.726;3.298;2024-03-08T00:57:10;27.92;;;13.35;;
61702;SDS011;47622;47.726;3.298;2024-03-08T00:59:39;26.95;;;14.00;;
61702;SDS011;47622;47.726;3.298;2024-03-08T01:02:05;27.42;;;13.32;;
61702;SDS011;47622;47.726;3.298;2024-03-08T01:04:31;24.55;;;12.93;;
61702;SDS011;47622;47.726;3.298;2024-03-08T01:06:58;25.98;;;13.40;;
61702;SDS011;47622;47.726;3.298;2024-03-08T01:09:24;23.23;;;12.10;;
61702;SDS011;47622;47.726;3.298;2024-03-08T01:11:51;30.00;;;14.35;;
61702;SDS011;47622;47.726;3.298;2024-03-08T01:14:19;25.63;;;13.52;;
61702;SDS011;47622;47.726;3.298;2024-03-08T01:16:47;26.02;;;13.18;;
61702;SDS011;47622;47.726;3.298;2024-03-08T01:19:14;24.33;;;12.82;;
61702;SDS011;47622;47.726;3.298;2024-03-08T01:21:40;24.13;;;13.05;;
61702;SDS011;47622;47.726;3.298;2024-03-08T01:24:06;23.08;;;12.32;;
61702;SDS011;47622;47.726;3.298;2024-03-08T01:26:32;25.05;;;12.93;;
61702;SDS011;47622;47.726;3.298;2024-03-08T01:28:59;25.35;;;12.60;;
61702;SDS011;47622;47.726;3.298;2024-03-08T01:31:28;29.05;;;13.50;;
61702;SDS011;47622;47.726;3.298;2024-03-08T01:33:59;23.52;;;12.50;;
61702;SDS011;47622;47.726;3.298;2024-03-08T01:36:25;26.80;;;13.20;;
61702;SDS011;47622;47.726;3.298;2024-03-08T01:38:51;26.27;;;12.77;;
61702;SDS011;47622;47.726;3.298;2024-03-08T01:41:17;28.50;;;14.18;;
61702;SDS011;47622;47.726;3.298;2024-03-08T01:43:43;27.52;;;13.18;;
61702;SDS011;47622;47.726;3.298;2024-03-08T01:46:10;26.30;;;12.98;;
61702;SDS011;47622;47.726;3.298;2024-03-08T01:48:40;26.02;;;12.48;;
61702;SDS011;47622;47.726;3.298;2024-03-08T01:51:06;23.23;;;12.35;;
61702;SDS011;47622;47.726;3.298;2024-03-08T01:53:32;25.80;;;12.82;;
61702;SDS011;47622;47.726;3.298;2024-03-08T01:55:59;23.95;;;12.07;;
61702;SDS011;47622;47.726;3.298;2024-03-08T01:58:26;22.85;;;11.98;;
61702;SDS011;47622;47.726;3.298;2024-03-08T02:00:53;26.70;;;12.60;;
61702;SDS011;47622;47.726;3.298;2024-03-08T02:03:19;24.50;;;11.77;;
61702;SDS011;47622;47.726;3.298;2024-03-08T02:05:46;24.30;;;12.70;;
61702;SDS011;47622;47.726;3.298;2024-03-08T02:08:11;22.40;;;10.98;;
61702;SDS011;47622;47.726;3.298;2024-03-08T02:10:43;23.27;;;11.52;;
61702;SDS011;47622;47.726;3.298;2024-03-08T02:13:10;22.98;;;11.02;;
61702;SDS011;47622;47.726;3.298;2024-03-08T02:15:55;23.17;;;11.85;;
61702;SDS011;47622;47.726;3.298;2024-03-08T02:18:27;25.77;;;12.93;;
61702;SDS011;47622;47.726;3.298;2024-03-08T02:20:55;26.00;;;11.63;;
61702;SDS011;47622;47.726;3.298;2024-03-08T02:23:22;24.05;;;11.50;;
61702;SDS011;47622;47.726;3.298;2024-03-08T02:25:48;25.35;;;12.30;;
61702;SDS011;47622;47.726;3.298;2024-03-08T02:28:14;26.55;;;12.68;;
61702;SDS011;47622;47.726;3.298;2024-03-08T02:30:40;23.70;;;12.68;;
61702;SDS011;47622;47.726;3.298;2024-03-08T02:33:07;24.80;;;12.07;;
61702;SDS011;47622;47.726;3.298;2024-03-08T02:35:36;26.85;;;12.38;;
61702;SDS011;47622;47.726;3.298;2024-03-08T02:38:05;23.17;;;11.57;;
61702;SDS011;47622;47.726;3.298;2024-03-08T02:40:31;24.02;;;11.93;;
61702;SDS011;47622;47.726;3.298;2024-03-08T02:42:57;22.92;;;11.70;;
61702;SDS011;47622;47.726;3.298;2024-03-08T02:45:23;25.40;;;12.23;;
61702;SDS011;47622;47.726;3.298;2024-03-08T02:47:49;24.52;;;12.25;;
61702;SDS011;47622;47.726;3.298;2024-03-08T02:50:15;23.52;;;11.85;;
61702;SDS011;47622;47.726;3.298;2024-03-08T02:52:41;25.50;;;11.80;;
61702;SDS011;47622;47.726;3.298;2024-03-08T02:55:07;22.02;;;11.23;;
61702;SDS011;47622;47.726;3.298;2024-03-08T02:57:35;24.75;;;11.30;;
61702;SDS011;47622;47.726;3.298;2024-03-08T03:00:02;26.40;;;11.93;;
61702;SDS011;47622;47.726;3.298;2024-03-08T03:02:28;25.33;;;11.77;;
61702;SDS011;47622;47.726;3.298;2024-03-08T03:04:54;24.67;;;11.68;;
61702;SDS011;47622;47.726;3.298;2024-03-08T03:07:21;24.50;;;10.63;;
61702;SDS011;47622;47.726;3.298;2024-03-08T03:09:46;25.15;;;12.13;;
61702;SDS011;47622;47.726;3.298;2024-03-08T03:12:12;23.63;;;11.27;;
61702;SDS011;47622;47.726;3.298;2024-03-08T03:14:39;20.45;;;11.23;;
61702;SDS011;47622;47.726;3.298;2024-03-08T03:17:05;24.15;;;11.00;;
61702;SDS011;47622;47.726;3.298;2024-03-08T03:19:31;23.50;;;12.60;;
61702;SDS011;47622;47.726;3.298;2024-03-08T03:21:56;23.48;;;12.10;;
61702;SDS011;47622;47.726;3.298;2024-03-08T03:24:22;27.02;;;12.50;;
61702;SDS011;47622;47.726;3.298;2024-03-08T03:26:48;30.25;;;12.00;;
61702;SDS011;47622;47.726;3.298;2024-03-08T03:32:36;24.27;;;11.98;;
61702;SDS011;47622;47.726;3.298;2024-03-08T03:35:12;25.33;;;12.00;;
61702;SDS011;47622;47.726;3.298;2024-03-08T03:37:38;21.83;;;11.73;;
61702;SDS011;47622;47.726;3.298;2024-03-08T03:40:05;31.60;;;12.65;;
61702;SDS011;47622;47.726;3.298;2024-03-08T03:42:34;24.88;;;11.80;;
61702;SDS011;47622;47.726;3.298;2024-03-08T03:45:00;22.23;;;10.73;;
61702;SDS011;47622;47.726;3.298;2024-03-08T03:47:28;26.67;;;11.85;;
61702;SDS011;47622;47.726;3.298;2024-03-08T03:49:54;22.98;;;11.15;;
61702;SDS011;47622;47.726;3.298;2024-03-08T03:52:20;20.85;;;11.18;;
61702;SDS011;47622;47.726;3.298;2024-03-08T03:54:46;23.55;;;10.55;;
61702;SDS011;47622;47.726;3.298;2024-03-08T03:57:12;22.23;;;11.10;;
61702;SDS011;47622;47.726;3.298;2024-03-08T03:59:40;19.05;;;10.43;;
61702;SDS011;47622;47.726;3.298;2024-03-08T04:02:10;22.98;;;11.48;;
61702;SDS011;47622;47.726;3.298;2024-03-08T04:04:36;24.30;;;12.13;;
61702;SDS011;47622;47.726;3.298;2024-03-08T04:07:02;22.30;;;11.43;;
61702;SDS011;47622;47.726;3.298;2024-03-08T04:09:28;19.25;;;10.43;;
61702;SDS011;47622;47.726;3.298;2024-03-08T04:11:53;21.90;;;11.05;;
61702;SDS011;47622;47.726;3.298;2024-03-08T04:14:20;26.73;;;11.00;;
61702;SDS011;47622;47.726;3.298;2024-03-08T04:16:46;25.60;;;11.82;;
61702;SDS011;47622;47.726;3.298;2024-03-08T04:19:13;26.50;;;12.15;;
61702;SDS011;47622;47.726;3.298;2024-03-08T04:21:39;24.23;;;12.18;;
61702;SDS011;47622;47.726;3.298;2024-03-08T04:24:04;21.08;;;11.32;;
61702;SDS011;47622;47.726;3.298;2024-03-08T04:26:30;23.65;;;10.93;;
61702;SDS011;47622;47.726;3.298;2024-03-08T04:28:56;20.52;;;11.07;;
61702;SDS011;47622;47.726;3.298;2024-03-08T04:31:22;19.95;;;10.55;;
61702;SDS011;47622;47.726;3.298;2024-03-08T04:33:47;24.20;;;11.57;;
61702;SDS011;47622;47.726;3.298;2024-03-08T04:36:13;23.08;;;12.05;;
61702;SDS011;47622;47.726;3.298;2024-03-08T04:38:39;23.45;;;11.35;;
61702;SDS011;47622;47.726;3.298;2024-03-08T04:41:06;24.48;;;11.25;;
61702;SDS011;47622;47.726;3.298;2024-03-08T04:43:32;23.45;;;11.25;;
61702;SDS011;47622;47.726;3.298;2024-03-08T04:45:58;22.75;;;11.65;;
61702;SDS011;47622;47.726;3.298;2024-03-08T04:48:24;23.73;;;11.63;;
61702;SDS011;47622;47.726;3.298;2024-03-08T04:50:52;22.67;;;10.77;;
61702;SDS011;47622;47.726;3.298;2024-03-08T04:53:18;23.85;;;11.75;;
61702;SDS011;47622;47.726;3.298;2024-03-08T04:55:44;21.30;;;10.25;;
61702;SDS011;47622;47.726;3.298;2024-03-08T04:58:10;24.40;;;10.52;;
61702;SDS011;47622;47.726;3.298;2024-03-08T05:00:35;22.30;;;10.98;;
61702;SDS011;47622;47.726;3.298;2024-03-08T05:03:01;24.65;;;10.50;;
61702;SDS011;47622;47.726;3.298;2024-03-08T05:05:27;22.60;;;11.18;;
61702;SDS011;47622;47.726;3.298;2024-03-08T05:07:54;23.05;;;10.52;;
61702;SDS011;47622;47.726;3.298;2024-03-08T05:10:19;23.67;;;10.95;;
61702;SDS011;47622;47.726;3.298;2024-03-08T05:12:45;19.92;;;10.70;;
61702;SDS011;47622;47.726;3.298;2024-03-08T05:15:11;18.90;;;10.10;;
61702;SDS011;47622;47.726;3.298;2024-03-08T05:17:36;20.92;;;10.68;;
61702;SDS011;47622;47.726;3.298;2024-03-08T05:20:02;19.92;;;10.20;;
61702;SDS011;47622;47.726;3.298;2024-03-08T05:22:29;20.02;;;10.60;;
61702;SDS011;47622;47.726;3.298;2024-03-08T05:24:54;22.08;;;10.15;;
61702;SDS011;47622;47.726;3.298;2024-03-08T05:27:20;20.38;;;9.95;;
61702;SDS011;47622;47.726;3.298;2024-03-08T05:29:46;17.42;;;10.15;;
61702;SDS011;47622;47.726;3.298;2024-03-08T05:32:12;20.83;;;9.88;;
61702;SDS011;47622;47.726;3.298;2024-03-08T05:34:39;22.80;;;10.18;;
61702;SDS011;47622;47.726;3.298;2024-03-08T05:37:05;23.00;;;11.18;;
61702;SDS011;47622;47.726;3.298;2024-03-08T05:39:32;19.00;;;9.65;;
61702;SDS011;47622;47.726;3.298;2024-03-08T05:41:57;22.67;;;10.00;;
61702;SDS011;47622;47.726;3.298;2024-03-08T05:44:23;17.67;;;8.90;;
61702;SDS011;47622;47.726;3.298;2024-03-08T05:46:49;18.55;;;9.48;;
61702;SDS011;47622;47.726;3.298;2024-03-08T05:49:16;18.52;;;9.75;;
61702;SDS011;47622;47.726;3.298;2024-03-08T05:51:42;20.17;;;9.30;;
61702;SDS011;47622;47.726;3.298;2024-03-08T05:54:08;17.30;;;9.27;;
61702;SDS011;47622;47.726;3.298;2024-03-08T05:56:37;19.27;;;10.05;;
61702;SDS011;47622;47.726;3.298;2024-03-08T05:59:05;22.95;;;10.23;;
61702;SDS011;47622;47.726;3.298;2024-03-08T06:01:31;19.15;;;9.93;;
61702;SDS011;47622;47.726;3.298;2024-03-08T06:03:57;21.83;;;9.60;;
61702;SDS011;47622;47.726;3.298;2024-03-08T06:06:23;17.70;;;9.45;;
61702;SDS011;47622;47.726;3.298;2024-03-08T06:08:50;16.75;;;8.80;;
61702;SDS011;47622;47.726;3.298;2024-03-08T06:11:16;18.25;;;9.73;;
61702;SDS011;47622;47.726;3.298;2024-03-08T06:13:44;15.77;;;8.85;;
61702;SDS011;47622;47.726;3.298;2024-03-08T06:16:11;17.95;;;9.15;;
61702;SDS011;47622;47.726;3.298;2024-03-08T06:18:38;19.77;;;8.68;;
61702;SDS011;47622;47.726;3.298;2024-03-08T06:21:06;16.55;;;8.80;;
61702;SDS011;47622;47.726;3.298;2024-03-08T06:23:35;16.48;;;8.45;;
61702;SDS011;47622;47.726;3.298;2024-03-08T06:26:04;16.13;;;8.57;;
61702;SDS011;47622;47.726;3.298;2024-03-08T06:28:31;16.98;;;8.52;;
61702;SDS011;47622;47.726;3.298;2024-03-08T06:31:01;17.73;;;9.27;;
61702;SDS011;47622;47.726;3.298;2024-03-08T06:33:27;15.27;;;8.65;;
61702;SDS011;47622;47.726;3.298;2024-03-08T06:35:54;14.30;;;7.47;;
61702;SDS011;47622;47.726;3.298;2024-03-08T06:38:25;15.05;;;7.65;;
61702;SDS011;47622;47.726;3.298;2024-03-08T06:40:51;17.27;;;8.50;;
61702;SDS011;47622;47.726;3.298;2024-03-08T06:43:17;18.08;;;9.05;;
61702;SDS011;47622;47.726;3.298;2024-03-08T06:45:44;16.77;;;9.35;;
61702;SDS011;47622;47.726;3.298;2024-03-08T06:48:17;14.45;;;8.20;;
61702;SDS011;47622;47.726;3.298;2024-03-08T06:50:46;14.90;;;8.13;;
61702;SDS011;47622;47.726;3.298;2024-03-08T06:53:13;16.08;;;7.75;;
61702;SDS011;47622;47.726;3.298;2024-03-08T06:55:39;14.65;;;8.02;;
61702;SDS011;47622;47.726;3.298;2024-03-08T06:58:07;17.73;;;8.82;;
61702;SDS011;47622;47.726;3.298;2024-03-08T07:00:33;11.73;;;7.47;;
61702;SDS011;47622;47.726;3.298;2024-03-08T07:02:59;13.02;;;7.53;;
61702;SDS011;47622;47.726;3.298;2024-03-08T07:05:28;14.20;;;7.82;;
61702;SDS011;47622;47.726;3.298;2024-03-08T07:07:54;13.43;;;7.65;;
61702;SDS011;47622;47.726;3.298;2024-03-08T07:10:23;13.23;;;7.15;;
61702;SDS011;47622;47.726;3.298;2024-03-08T07:12:52;13.57;;;7.33;;
61702;SDS011;47622;47.726;3.298;2024-03-08T07:15:20;13.93;;;6.68;;
61702;SDS011;47622;47.726;3.298;2024-03-08T07:17:46;10.63;;;6.80;;
61702;SDS011;47622;47.726;3.298;2024-03-08T07:20:12;10.80;;;6.53;;
61702;SDS011;47622;47.726;3.298;2024-03-08T07:22:39;15.27;;;7.07;;
61702;SDS011;47622;47.726;3.298;2024-03-08T07:25:06;12.73;;;7.22;;
61702;SDS011;47622;47.726;3.298;2024-03-08T07:27:34;13.65;;;7.40;;
61702;SDS011;47622;47.726;3.298;2024-03-08T07:30:01;11.45;;;6.03;;
61702;SDS011;47622;47.726;3.298;2024-03-08T07:32:27;11.52;;;7.20;;
61702;SDS011;47622;47.726;3.298;2024-03-08T07:34:55;11.07;;;7.28;;
61702;SDS011;47622;47.726;3.298;2024-03-08T07:37:21;13.55;;;7.05;;
61702;SDS011;47622;47.726;3.298;2024-03-08T07:39:47;10.60;;;6.95;;
61702;SDS011;47622;47.726;3.298;2024-03-08T07:42:12;9.48;;;6.60;;
61702;SDS011;47622;47.726;3.298;2024-03-08T07:44:38;13.38;;;5.90;;
61702;SDS011;47622;47.726;3.298;2024-03-08T07:47:04;11.13;;;6.18;;
61702;SDS011;47622;47.726;3.298;2024-03-08T07:49:29;11.63;;;6.45;;
61702;SDS011;47622;47.726;3.298;2024-03-08T07:51:58;10.38;;;5.72;;
61702;SDS011;47622;47.726;3.298;2024-03-08T07:54:24;10.70;;;6.13;;
61702;SDS011;47622;47.726;3.298;2024-03-08T07:56:51;9.40;;;5.85;;
61702;SDS011;47622;47.726;3.298;2024-03-08T07:59:17;9.30;;;5.88;;
61702;SDS011;47622;47.726;3.298;2024-03-08T08:01:43;9.90;;;6.40;;
61702;SDS011;47622;47.726;3.298;2024-03-08T08:04:09;11.55;;;5.78;;
61702;SDS011;47622;47.726;3.298;2024-03-08T08:06:40;13.15;;;6.03;;
61702;SDS011;47622;47.726;3.298;2024-03-08T08:09:08;11.27;;;5.70;;
61702;SDS011;47622;47.726;3.298;2024-03-08T08:11:40;8.13;;;5.30;;
61702;SDS011;47622;47.726;3.298;2024-03-08T08:14:08;8.63;;;5.63;;
61702;SDS011;47622;47.726;3.298;2024-03-08T08:16:37;9.95;;;5.38;;
61702;SDS011;47622;47.726;3.298;2024-03-08T08:19:03;11.30;;;5.50;;
61702;SDS011;47622;47.726;3.298;2024-03-08T08:21:35;11.07;;;5.78;;
61702;SDS011;47622;47.726;3.298;2024-03-08T08:24:04;8.38;;;4.93;;
61702;SDS011;47622;47.726;3.298;2024-03-08T08:26:30;7.50;;;4.63;;
61702;SDS011;47622;47.726;3.298;2024-03-08T08:28:55;7.60;;;4.43;;
61702;SDS011;47622;47.726;3.298;2024-03-08T08:31:21;8.35;;;4.40;;
61702;SDS011;47622;47.726;3.298;2024-03-08T08:33:47;8.60;;;4.40;;
61702;SDS011;47622;47.726;3.298;2024-03-08T08:36:15;9.15;;;4.38;;
61702;SDS011;47622;47.726;3.298;2024-03-08T08:38:40;7.20;;;3.67;;
61702;SDS011;47622;47.726;3.298;2024-03-08T08:41:09;9.45;;;4.55;;
61702;SDS011;47622;47.726;3.298;2024-03-08T08:43:36;6.53;;;3.58;;
61702;SDS011;47622;47.726;3.298;2024-03-08T08:46:01;4.75;;;3.25;;
61702;SDS011;47622;47.726;3.298;2024-03-08T08:48:27;6.30;;;3.35;;
61702;SDS011;47622;47.726;3.298;2024-03-08T08:50:54;5.10;;;3.20;;
61702;SDS011;47622;47.726;3.298;2024-03-08T08:53:20;4.95;;;3.40;;
61702;SDS011;47622;47.726;3.298;2024-03-08T08:55:47;7.93;;;3.78;;
61702;SDS011;47622;47.726;3.298;2024-03-08T08:58:12;5.53;;;3.17;;
61702;SDS011;47622;47.726;3.298;2024-03-08T09:00:39;8.45;;;3.80;;
61702;SDS011;47622;47.726;3.298;2024-03-08T09:03:05;5.80;;;3.30;;
61702;SDS011;47622;47.726;3.298;2024-03-08T09:05:32;5.53;;;3.08;;
61702;SDS011;47622;47.726;3.298;2024-03-08T09:07:59;5.88;;;3.30;;
61702;SDS011;47622;47.726;3.298;2024-03-08T09:10:25;5.55;;;3.00;;
61702;SDS011;47622;47.726;3.298;2024-03-08T09:12:50;5.03;;;3.10;;
61702;SDS011;47622;47.726;3.298;2024-03-08T09:15:16;3.83;;;2.90;;
61702;SDS011;47622;47.726;3.298;2024-03-08T09:17:45;6.95;;;3.25;;
61702;SDS011;47622;47.726;3.298;2024-03-08T09:20:12;5.50;;;2.80;;
61702;SDS011;47622;47.726;3.298;2024-03-08T09:22:43;4.72;;;2.80;;
61702;SDS011;47622;47.726;3.298;2024-03-08T09:25:09;4.15;;;2.75;;
61702;SDS011;47622;47.726;3.298;2024-03-08T09:27:35;4.53;;;2.65;;
61702;SDS011;47622;47.726;3.298;2024-03-08T09:30:01;6.72;;;2.90;;
61702;SDS011;47622;47.726;3.298;2024-03-08T09:32:26;5.25;;;2.92;;
61702;SDS011;47622;47.726;3.298;2024-03-08T09:34:52;5.47;;;2.70;;
61702;SDS011;47622;47.726;3.298;2024-03-08T09:37:17;3.92;;;2.60;;
61702;SDS011;47622;47.726;3.298;2024-03-08T09:39:44;4.95;;;2.50;;
61702;SDS011;47622;47.726;3.298;2024-03-08T09:42:10;5.45;;;2.75;;
61702;SDS011;47622;47.726;3.298;2024-03-08T09:44:43;5.57;;;2.95;;
61702;SDS011;47622;47.726;3.298;2024-03-08T09:47:15;6.15;;;2.75;;
61702;SDS011;47622;47.726;3.298;2024-03-08T09:49:41;6.53;;;2.60;;
61702;SDS011;47622;47.726;3.298;2024-03-08T09:52:08;4.70;;;2.42;;
61702;SDS011;47622;47.726;3.298;2024-03-08T09:54:35;7.10;;;2.70;;
61702;SDS011;47622;47.726;3.298;2024-03-08T09:57:03;4.18;;;2.35;;
61702;SDS011;47622;47.726;3.298;2024-03-08T09:59:29;5.03;;;2.45;;
61702;SDS011;47622;47.726;3.298;2024-03-08T10:02:12;4.28;;;1.65;;
61702;SDS011;47622;47.726;3.298;2024-03-08T10:04:40;5.53;;;1.58;;
61702;SDS011;47622;47.726;3.298;2024-03-08T10:07:12;6.75;;;2.00;;
61702;SDS011;47622;47.726;3.298;2024-03-08T10:09:38;2.97;;;1.70;;
61702;SDS011;47622;47.726;3.298;2024-03-08T10:12:04;3.85;;;1.63;;
61702;SDS011;47622;47.726;3.298;2024-03-08T10:14:30;3.05;;;1.50;;
61702;SDS011;47622;47.726;3.298;2024-03-08T10:16:57;3.72;;;1.50;;
61702;SDS011;47622;47.726;3.298;2024-03-08T10:19:26;4.22;;;1.45;;
61702;SDS011;47622;47.726;3.298;2024-03-08T10:21:55;4.10;;;1.70;;
61702;SDS011;47622;47.726;3.298;2024-03-08T10:24:22;4.05;;;2.05;;
61702;SDS011;47622;47.726;3.298;2024-03-08T10:26:52;3.38;;;1.88;;
61702;SDS011;47622;47.726;3.298;2024-03-08T10:29:19;2.25;;;1.65;;
61702;SDS011;47622;47.726;3.298;2024-03-08T10:31:45;4.53;;;1.70;;
61702;SDS011;47622;47.726;3.298;2024-03-08T10:34:10;4.50;;;1.50;;
61702;SDS011;47622;47.726;3.298;2024-03-08T10:36:36;3.85;;;1.33;;
61702;SDS011;47622;47.726;3.298;2024-03-08T10:39:06;2.75;;;1.33;;
61702;SDS011;47622;47.726;3.298;2024-03-08T10:41:47;2.75;;;1.50;;
61702;SDS011;47622;47.726;3.298;2024-03-08T10:47:02;3.45;;;1.20;;
61702;SDS011;47622;47.726;3.298;2024-03-08T10:49:38;5.70;;;1.27;;
61702;SDS011;47622;47.726;3.298;2024-03-08T10:52:08;2.42;;;1.10;;
61702;SDS011;47622;47.726;3.298;2024-03-08T10:54:37;4.22;;;1.17;;
61702;SDS011;47622;47.726;3.298;2024-03-08T10:57:05;5.47;;;1.50;;
61702;SDS011;47622;47.726;3.298;2024-03-08T10:59:34;2.97;;;1.25;;
61702;SDS011;47622;47.726;3.298;2024-03-08T11:02:01;4.53;;;1.13;;
61702;SDS011;47622;47.726;3.298;2024-03-08T11:04:27;3.00;;;1.23;;
61702;SDS011;47622;47.726;3.298;2024-03-08T11:06:59;2.40;;;1.20;;
61702;SDS011;47622;47.726;3.298;2024-03-08T11:09:35;2.45;;;1.20;;
61702;SDS011;47622;47.726;3.298;2024-03-08T11:15:00;4.60;;;1.38;;
61702;SDS011;47622;47.726;3.298;2024-03-08T11:19:57;5.03;;;1.30;;
61702;SDS011;47622;47.726;3.298;2024-03-08T11:22:31;4.40;;;1.40;;
61702;SDS011;47622;47.726;3.298;2024-03-08T11:25:01;2.40;;;1.40;;
61702;SDS011;47622;47.726;3.298;2024-03-08T11:27:29;2.90;;;1.67;;
61702;SDS011;47622;47.726;3.298;2024-03-08T11:30:04;3.83;;;1.77;;
61702;SDS011;47622;47.726;3.298;2024-03-08T11:32:37;3.60;;;1.30;;
61702;SDS011;47622;47.726;3.298;2024-03-08T11:35:07;4.78;;;1.05;;
61702;SDS011;47622;47.726;3.298;2024-03-08T11:37:43;5.03;;;1.60;;
61702;SDS011;47622;47.726;3.298;2024-03-08T11:40:12;2.50;;;1.27;;
61702;SDS011;47622;47.726;3.298;2024-03-08T11:42:48;2.40;;;1.35;;
61702;SDS011;47622;47.726;3.298;2024-03-08T11:47:42;5.38;;;1.38;;
61702;SDS011;47622;47.726;3.298;2024-03-08T11:50:11;2.20;;;1.27;;
61702;SDS011;47622;47.726;3.298;2024-03-08T11:52:37;1.80;;;1.30;;
61702;SDS011;47622;47.726;3.298;2024-03-08T11:55:03;3.92;;;1.40;;
61702;SDS011;47622;47.726;3.298;2024-03-08T11:57:30;1.50;;;1.40;;
61702;SDS011;47622;47.726;3.298;2024-03-08T11:59:56;1.85;;;1.10;;
61702;SDS011;47622;47.726;3.298;2024-03-08T12:02:22;2.50;;;1.30;;
61702;SDS011;47622;47.726;3.298;2024-03-08T12:04:55;4.43;;;1.20;;
61702;SDS011;47622;47.726;3.298;2024-03-08T12:07:25;7.75;;;1.42;;
61702;SDS011;47622;47.726;3.298;2024-03-08T12:12:47;3.20;;;1.02;;
61702;SDS011;47622;47.726;3.298;2024-03-08T12:15:17;1.35;;;1.08;;
61702;SDS011;47622;47.726;3.298;2024-03-08T12:17:44;2.90;;;1.20;;
61702;SDS011;47622;47.726;3.298;2024-03-08T12:22:50;4.57;;;1.30;;
61702;SDS011;47622;47.726;3.298;2024-03-08T12:25:23;2.27;;;1.20;;
61702;SDS011;47622;47.726;3.298;2024-03-08T12:27:51;2.97;;;1.30;;
61702;SDS011;47622;47.726;3.298;2024-03-08T12:30:20;6.85;;;1.65;;
61702;SDS011;47622;47.726;3.298;2024-03-08T12:35:27;2.58;;;1.40;;
61702;SDS011;47622;47.726;3.298;2024-03-08T12:37:57;3.08;;;1.38;;
61702;SDS011;47622;47.726;3.298;2024-03-08T12:40:28;3.85;;;1.40;;
61702;SDS011;47622;47.726;3.298;2024-03-08T12:42:56;4.60;;;1.30;;
61702;SDS011;47622;47.726;3.298;2024-03-08T12:45:26;1.52;;;1.10;;
61702;SDS011;47622;47.726;3.298;2024-03-08T12:47:52;3.17;;;1.33;;
61702;SDS011;47622;47.726;3.298;2024-03-08T12:50:19;4.88;;;1.40;;
61702;SDS011;47622;47.726;3.298;2024-03-08T12:52:45;2.50;;;1.20;;
61702;SDS011;47622;47.726;3.298;2024-03-08T12:55:11;1.55;;;1.27;;
61702;SDS011;47622;47.726;3.298;2024-03-08T12:57:37;2.58;;;1.85;;
61702;SDS011;47622;47.726;3.298;2024-03-08T13:00:04;3.78;;;1.20;;
61702;SDS011;47622;47.726;3.298;2024-03-08T13:02:31;3.97;;;1.05;;
61702;SDS011;47622;47.726;3.298;2024-03-08T13:04:57;3.92;;;1.13;;
61702;SDS011;47622;47.726;3.298;2024-03-08T13:07:24;2.65;;;1.38;;
61702;SDS011;47622;47.726;3.298;2024-03-08T13:09:53;2.90;;;1.23;;
61702;SDS011;47622;47.726;3.298;2024-03-08T13:12:20;1.73;;;1.30;;
61702;SDS011;47622;47.726;3.298;2024-03-08T13:14:46;2.63;;;1.25;;
61702;SDS011;47622;47.726;3.298;2024-03-08T13:17:13;2.17;;;1.40;;
61702;SDS011;47622;47.726;3.298;2024-03-08T13:19:39;2.42;;;1.27;;
61702;SDS011;47622;47.726;3.298;2024-03-08T13:22:05;3.35;;;1.50;;
61702;SDS011;47622;47.726;3.298;2024-03-08T13:24:31;2.17;;;1.30;;
61702;SDS011;47622;47.726;3.298;2024-03-08T13:26:56;3.13;;;1.55;;
61702;SDS011;47622;47.726;3.298;2024-03-08T13:29:23;2.92;;;1.40;;
61702;SDS011;47622;47.726;3.298;2024-03-08T13:31:49;4.15;;;1.75;;
61702;SDS011;47622;47.726;3.298;2024-03-08T13:34:17;3.50;;;1.13;;
61702;SDS011;47622;47.726;3.298;2024-03-08T13:36:43;3.63;;;1.50;;
61702;SDS011;47622;47.726;3.298;2024-03-08T13:39:10;4.32;;;1.55;;
61702;SDS011;47622;47.726;3.298;2024-03-08T13:41:41;1.42;;;1.17;;
61702;SDS011;47622;47.726;3.298;2024-03-08T13:44:07;1.30;;;1.17;;
61702;SDS011;47622;47.726;3.298;2024-03-08T13:46:32;5.07;;;1.17;;
61702;SDS011;47622;47.726;3.298;2024-03-08T13:49:04;2.08;;;1.35;;
61702;SDS011;47622;47.726;3.298;2024-03-08T13:51:33;3.60;;;1.38;;
61702;SDS011;47622;47.726;3.298;2024-03-08T13:53:59;2.92;;;1.60;;
61702;SDS011;47622;47.726;3.298;2024-03-08T13:56:25;1.23;;;1.10;;
61702;SDS011;47622;47.726;3.298;2024-03-08T13:58:51;5.68;;;1.60;;
61702;SDS011;47622;47.726;3.298;2024-03-08T14:01:17;2.90;;;1.40;;
61702;SDS011;47622;47.726;3.298;2024-03-08T14:03:43;3.53;;;1.42;;
61702;SDS011;47622;47.726;3.298;2024-03-08T14:06:09;6.35;;;1.42;;
61702;SDS011;47622;47.726;3.298;2024-03-08T14:08:36;4.43;;;1.55;;
61702;SDS011;47622;47.726;3.298;2024-03-08T14:11:05;1.90;;;1.20;;
61702;SDS011;47622;47.726;3.298;2024-03-08T14:13:43;2.60;;;1.50;;
61702;SDS011;47622;47.726;3.298;2024-03-08T14:16:12;1.95;;;1.40;;
61702;SDS011;47622;47.726;3.298;2024-03-08T14:18:38;2.78;;;1.23;;
61702;SDS011;47622;47.726;3.298;2024-03-08T14:21:07;1.63;;;1.30;;
61702;SDS011;47622;47.726;3.298;2024-03-08T14:23:35;1.77;;;1.40;;
61702;SDS011;47622;47.726;3.298;2024-03-08T14:26:02;4.45;;;1.42;;
61702;SDS011;47622;47.726;3.298;2024-03-08T14:28:29;20.88;;;2.58;;
61702;SDS011;47622;47.726;3.298;2024-03-08T14:30:55;1.55;;;1.20;;
61702;SDS011;47622;47.726;3.298;2024-03-08T14:33:20;2.17;;;1.30;;
61702;SDS011;47622;47.726;3.298;2024-03-08T14:35:46;2.85;;;1.45;;
61702;SDS011;47622;47.726;3.298;2024-03-08T14:38:15;2.22;;;1.20;;
61702;SDS011;47622;47.726;3.298;2024-03-08T14:40:45;1.42;;;1.23;;
61702;SDS011;47622;47.726;3.298;2024-03-08T14:43:12;3.90;;;1.95;;
61702;SDS011;47622;47.726;3.298;2024-03-08T14:45:38;5.93;;;1.50;;
61702;SDS011;47622;47.726;3.298;2024-03-08T14:48:04;1.27;;;1.00;;
61702;SDS011;47622;47.726;3.298;2024-03-08T14:50:30;3.10;;;1.20;;
61702;SDS011;47622;47.726;3.298;2024-03-08T14:52:58;2.75;;;1.45;;
61702;SDS011;47622;47.726;3.298;2024-03-08T14:55:25;2.13;;;1.20;;
61702;SDS011;47622;47.726;3.298;2024-03-08T14:57:51;2.53;;;1.25;;